createdAt,value
2022-10-01T00:01:29.334Z,95.30
2022-10-01T00:03:57.230Z,95.07
2022-10-01T00:06:25.034Z,95.22
2022-10-01T00:08:53.129Z,95.23
2022-10-01T00:11:23.470Z,95.04
2022-10-01T00:13:51.583Z,95.79
2022-10-01T00:16:22.069Z,94.63
2022-10-01T00:18:53.428Z,95.02
2022-10-01T00:21:22.772Z,95.13
2022-10-01T00:23:55.468Z,94.18
2022-10-01T00:26:27.289Z,94.24
2022-10-01T00:28:56.767Z,93.89
2022-10-01T00:31:25.208Z,94.97
2022-10-01T00:33:54.977Z,94.69
2022-10-01T00:36:23.396Z,94.83
2022-10-01T00:38:51.621Z,94.92
2022-10-01T00:41:20.457Z,95.79
2022-10-01T00:43:51.679Z,96.11
2022-10-01T00:46:22.739Z,95.97
2022-10-01T00:48:58.503Z,95.36
2022-10-01T00:51:30.898Z,95.80
2022-10-01T00:54:03.853Z,95.40
2022-10-01T00:56:34.201Z,95.85
2022-10-01T00:59:02.322Z,95.90
2022-10-01T01:01:30.262Z,94.90
2022-10-01T01:03:59.843Z,94.43
2022-10-01T01:06:27.706Z,93.97
2022-10-01T01:08:57.090Z,93.82
2022-10-01T01:11:37.289Z,94.00
2022-10-01T01:14:14.227Z,93.56
2022-10-01T01:16:50.241Z,94.35
2022-10-01T01:19:34.045Z,93.08
2022-10-01T01:22:05.547Z,93.25
2022-10-01T01:24:51.064Z,92.53
2022-10-01T01:27:36.330Z,93.02
2022-10-01T01:30:08.554Z,93.38
2022-10-01T01:32:46.290Z,92.66
2022-10-01T01:35:21.270Z,92.79
2022-10-01T01:37:54.386Z,92.52
2022-10-01T01:40:22.986Z,93.13
2022-10-01T01:42:51.852Z,93.23
2022-10-01T01:45:26.173Z,92.75
2022-10-01T01:47:56.077Z,91.94
2022-10-01T01:50:26.115Z,92.05
2022-10-01T01:52:54.328Z,91.79
2022-10-01T01:55:24.557Z,93.11
2022-10-01T01:57:53.082Z,92.25
2022-10-01T02:00:22.604Z,91.70
2022-10-01T02:02:53.410Z,92.28
2022-10-01T02:05:27.179Z,91.62
2022-10-01T02:08:12.771Z,92.82
2022-10-01T02:11:02.097Z,92.53
2022-10-01T02:13:39.805Z,91.80
2022-10-01T02:16:18.976Z,91.87
2022-10-01T02:18:53.168Z,91.54
2022-10-01T02:21:24.201Z,90.77
2022-10-01T02:23:58.042Z,91.11
2022-10-01T02:26:28.540Z,91.16
2022-10-01T02:29:00.857Z,91.21
2022-10-01T02:31:31.885Z,91.14
2022-10-01T02:34:03.153Z,91.58
2022-10-01T02:36:33.618Z,90.93
2022-10-01T02:39:04.818Z,90.72
2022-10-01T02:41:37.892Z,91.00
2022-10-01T02:44:10.240Z,91.20
2022-10-01T02:46:46.167Z,91.15
2022-10-01T02:49:14.998Z,91.62
2022-10-01T02:51:54.313Z,91.46
2022-10-01T02:54:28.985Z,90.66
2022-10-01T02:57:15.436Z,90.55
2022-10-01T02:59:43.329Z,90.12
2022-10-01T03:02:12.887Z,91.13
2022-10-01T03:04:40.740Z,90.61
2022-10-01T03:07:08.834Z,91.18
2022-10-01T03:09:37.342Z,89.83
2022-10-01T03:12:06.539Z,89.68
2022-10-01T03:14:34.324Z,90.47
2022-10-01T03:17:02.148Z,90.10
2022-10-01T03:19:31.310Z,90.08
2022-10-01T03:21:59.124Z,89.44
2022-10-01T03:24:26.897Z,89.82
2022-10-01T03:26:55.638Z,89.80
2022-10-01T03:29:23.552Z,90.72
2022-10-01T03:31:51.478Z,90.73
2022-10-01T03:34:19.910Z,93.62
2022-10-01T03:36:50.018Z,95.48
2022-10-01T03:39:17.868Z,98.18
2022-10-01T03:41:45.978Z,99.96
2022-10-01T03:44:13.857Z,100.00
2022-10-01T03:46:41.690Z,100.00
2022-10-01T03:49:10.658Z,100.00
2022-10-01T03:51:38.844Z,100.00
2022-10-01T03:54:09.688Z,100.00
2022-10-01T03:56:38.440Z,100.00
2022-10-01T03:59:06.263Z,100.00
2022-10-01T04:01:34.445Z,100.00
2022-10-01T04:04:04.070Z,100.00
2022-10-01T04:06:31.977Z,100.00
2022-10-01T04:08:59.850Z,100.00
2022-10-01T04:11:29.022Z,100.00
2022-10-01T04:13:57.929Z,100.00
2022-10-01T04:16:26.180Z,100.00
2022-10-01T04:18:54.532Z,100.00
2022-10-01T04:21:22.393Z,100.00
2022-10-01T04:23:50.665Z,100.00
2022-10-01T04:26:19.162Z,100.00
2022-10-01T04:28:48.422Z,100.00
2022-10-01T04:31:25.813Z,100.00
2022-10-01T04:33:54.921Z,100.00
2022-10-01T04:36:23.884Z,100.00
2022-10-01T04:38:54.650Z,100.00
2022-10-01T04:41:25.459Z,100.00
2022-10-01T04:43:54.637Z,100.00
2022-10-01T04:46:22.696Z,100.00
2022-10-01T04:48:50.542Z,100.00
2022-10-01T04:51:18.833Z,100.00
2022-10-01T04:53:46.741Z,100.00
2022-10-01T04:56:14.525Z,100.00
2022-10-01T04:58:42.377Z,100.00
2022-10-01T05:01:11.576Z,100.00
2022-10-01T05:03:39.796Z,100.00
2022-10-01T05:06:07.572Z,100.00
2022-10-01T05:08:35.413Z,100.00
2022-10-01T05:11:03.228Z,100.00
2022-10-01T05:13:31.889Z,100.00
2022-10-01T05:16:01.087Z,100.00
2022-10-01T05:18:30.420Z,100.00
2022-10-01T05:20:58.263Z,100.00
2022-10-01T05:23:26.282Z,100.00
2022-10-01T05:25:54.069Z,100.00
2022-10-01T05:28:22.776Z,100.00
2022-10-01T05:30:51.125Z,100.00
2022-10-01T05:33:19.260Z,100.00
2022-10-01T05:35:48.434Z,100.00
2022-10-01T05:38:16.259Z,100.00
2022-10-01T05:40:46.745Z,100.00
2022-10-01T05:43:15.065Z,100.00
2022-10-01T05:45:43.792Z,100.00
2022-10-01T05:48:12.867Z,100.00
2022-10-01T05:50:42.424Z,100.00
2022-10-01T05:53:14.006Z,100.00
2022-10-01T05:55:41.882Z,100.00
2022-10-01T05:58:12.277Z,100.00
2022-10-01T06:00:41.010Z,100.00
2022-10-01T06:03:10.047Z,100.00
2022-10-01T06:05:38.460Z,100.00
2022-10-01T06:08:07.460Z,100.00
2022-10-01T06:10:37.119Z,100.00
2022-10-01T06:13:06.466Z,100.00
2022-10-01T06:15:37.633Z,100.00
2022-10-01T06:18:06.233Z,100.00
2022-10-01T06:20:34.453Z,100.00
2022-10-01T06:23:02.434Z,100.00
2022-10-01T06:25:30.687Z,100.00
2022-10-01T06:28:00.850Z,100.00
2022-10-01T06:30:31.955Z,100.00
2022-10-01T06:33:02.206Z,100.00
2022-10-01T06:35:30.532Z,100.00
2022-10-01T06:37:58.453Z,100.00
2022-10-01T06:40:26.405Z,100.00
2022-10-01T06:42:57.852Z,100.00
2022-10-01T06:45:27.646Z,100.00
2022-10-01T06:47:55.905Z,100.00
2022-10-01T06:50:24.367Z,100.00
2022-10-01T06:52:52.768Z,100.00
2022-10-01T06:55:22.656Z,100.00
2022-10-01T06:57:55.721Z,100.00
2022-10-01T07:00:24.161Z,100.00
2022-10-01T07:02:54.164Z,100.00
2022-10-01T07:05:22.170Z,100.00
2022-10-01T07:07:50.281Z,100.00
2022-10-01T07:10:20.961Z,100.00
2022-10-01T07:12:49.984Z,100.00
2022-10-01T07:15:19.332Z,100.00
2022-10-01T07:17:49.576Z,100.00
2022-10-01T07:20:20.113Z,100.00
2022-10-01T07:22:49.853Z,100.00
2022-10-01T07:25:17.867Z,100.00
2022-10-01T07:27:45.763Z,100.00
2022-10-01T07:30:13.638Z,100.00
2022-10-01T07:32:45.896Z,100.00
2022-10-01T07:35:14.447Z,100.00
2022-10-01T07:37:43.689Z,100.00
2022-10-01T07:40:11.775Z,100.00
2022-10-01T07:42:39.538Z,100.00
2022-10-01T07:45:08.878Z,100.00
2022-10-01T07:47:36.660Z,100.00
2022-10-01T07:50:07.083Z,100.00
2022-10-01T07:52:34.884Z,100.00
2022-10-01T07:55:05.631Z,100.00
2022-10-01T07:57:34.181Z,100.00
2022-10-01T08:00:02.385Z,100.00
2022-10-01T08:02:39.946Z,100.00
2022-10-01T08:05:18.650Z,100.00
2022-10-01T08:07:47.058Z,100.00
2022-10-01T08:10:18.898Z,100.00
2022-10-01T08:12:47.222Z,100.00
2022-10-01T08:15:17.401Z,100.00
2022-10-01T08:17:46.001Z,100.00
2022-10-01T08:20:16.185Z,100.00
2022-10-01T08:22:43.976Z,100.00
2022-10-01T08:25:12.073Z,100.00
2022-10-01T08:27:41.360Z,100.00
2022-10-01T08:30:10.131Z,100.00
2022-10-01T08:32:38.120Z,100.00
2022-10-01T08:35:06.874Z,100.00
2022-10-01T08:37:34.833Z,100.00
2022-10-01T08:40:02.991Z,100.00
2022-10-01T08:42:52.089Z,100.00
2022-10-01T08:45:24.705Z,100.00
2022-10-01T08:48:00.156Z,100.00
2022-10-01T08:50:45.591Z,100.00
2022-10-01T08:53:19.196Z,100.00
2022-10-01T08:55:48.423Z,100.00
2022-10-01T08:58:26.484Z,100.00
2022-10-01T09:00:54.523Z,100.00
2022-10-01T09:03:22.475Z,100.00
2022-10-01T09:06:08.977Z,100.00
2022-10-01T09:08:58.869Z,100.00
2022-10-01T09:11:38.640Z,100.00
2022-10-01T09:14:24.942Z,100.00
2022-10-01T09:17:03.504Z,100.00
2022-10-01T09:19:50.340Z,100.00
2022-10-01T09:22:27.796Z,100.00
2022-10-01T09:25:04.502Z,100.00
2022-10-01T09:27:33.109Z,100.00
2022-10-01T09:30:05.489Z,100.00
2022-10-01T09:32:39.805Z,100.00
2022-10-01T09:35:20.353Z,100.00
2022-10-01T09:37:55.995Z,100.00
2022-10-01T09:40:34.129Z,100.00
2022-10-01T09:43:02.428Z,100.00
2022-10-01T09:45:32.107Z,100.00
2022-10-01T09:48:06.111Z,100.00
2022-10-01T09:50:41.033Z,100.00
2022-10-01T09:53:17.279Z,100.00
2022-10-01T09:55:48.918Z,100.00
2022-10-01T09:58:19.967Z,100.00
2022-10-01T10:00:51.546Z,100.00
2022-10-01T10:03:28.489Z,100.00
2022-10-01T10:05:57.041Z,100.00
2022-10-01T10:08:30.048Z,100.00
2022-10-01T10:11:00.678Z,100.00
2022-10-01T10:13:35.111Z,100.00
2022-10-01T10:16:15.283Z,100.00
2022-10-01T10:18:43.819Z,100.00
2022-10-01T10:21:16.391Z,100.00
2022-10-01T10:23:50.467Z,100.00
2022-10-01T10:26:24.099Z,100.00
2022-10-01T10:28:52.009Z,100.00
2022-10-01T10:31:24.082Z,100.00
2022-10-01T10:33:54.294Z,100.00
2022-10-01T10:36:26.881Z,100.00
2022-10-01T10:38:54.976Z,100.00
2022-10-01T10:41:26.445Z,100.00
2022-10-01T10:43:58.933Z,100.00
2022-10-01T10:46:32.196Z,100.00
2022-10-01T10:49:06.609Z,100.00
2022-10-01T10:51:51.550Z,100.00
2022-10-01T10:54:25.154Z,100.00
2022-10-01T10:57:00.858Z,100.00
2022-10-01T10:59:33.174Z,100.00
2022-10-01T11:02:05.056Z,100.00
2022-10-01T11:04:42.838Z,100.00
2022-10-01T11:07:13.407Z,100.00
2022-10-01T11:10:02.116Z,100.00
2022-10-01T11:12:46.711Z,100.00
2022-10-01T11:15:26.158Z,100.00
2022-10-01T11:18:13.083Z,100.00
2022-10-01T11:20:52.142Z,100.00
2022-10-01T11:23:38.575Z,100.00
2022-10-01T11:26:18.144Z,100.00
2022-10-01T11:28:58.340Z,100.00
2022-10-01T11:31:37.584Z,100.00
2022-10-01T11:34:20.034Z,100.00
2022-10-01T11:36:59.366Z,100.00
2022-10-01T11:39:29.336Z,100.00
2022-10-01T11:42:03.350Z,100.00
2022-10-01T11:44:37.078Z,100.00
2022-10-01T11:47:11.330Z,100.00
2022-10-01T11:49:52.003Z,100.00
2022-10-01T11:52:33.165Z,100.00
2022-10-01T11:55:32.526Z,100.00
2022-10-01T11:58:24.234Z,100.00
2022-10-01T12:01:01.073Z,100.00
2022-10-01T12:03:37.634Z,100.00
2022-10-01T12:06:14.671Z,100.00
2022-10-01T12:08:53.922Z,100.00
2022-10-01T12:11:29.259Z,100.00
2022-10-01T12:14:04.199Z,100.00
2022-10-01T12:16:42.919Z,100.00
2022-10-01T12:19:17.384Z,100.00
2022-10-01T12:21:51.820Z,100.00
2022-10-01T12:24:22.469Z,100.00
2022-10-01T12:27:03.393Z,100.00
2022-10-01T12:29:44.260Z,100.00
2022-10-01T12:32:24.729Z,100.00
2022-10-01T12:35:04.704Z,100.00
2022-10-01T12:37:48.657Z,100.00
2022-10-01T12:40:26.575Z,100.00
2022-10-01T12:43:08.966Z,100.00
2022-10-01T12:45:49.436Z,100.00
2022-10-01T12:48:25.702Z,100.00
2022-10-01T12:51:03.258Z,100.00
2022-10-01T12:53:40.316Z,100.00
2022-10-01T12:56:17.408Z,100.00
2022-10-01T12:59:06.895Z,100.00
2022-10-01T13:01:45.941Z,100.00
2022-10-01T13:04:31.239Z,100.00
2022-10-01T13:07:20.415Z,100.00
2022-10-01T13:10:01.147Z,100.00
2022-10-01T13:12:48.905Z,100.00
2022-10-01T13:15:22.200Z,100.00
2022-10-01T13:17:54.596Z,100.00
2022-10-01T13:20:31.107Z,100.00
2022-10-01T13:23:06.339Z,100.00
2022-10-01T13:25:42.600Z,100.00
2022-10-01T13:28:17.910Z,100.00
2022-10-01T13:30:55.875Z,100.00
2022-10-01T13:33:26.838Z,100.00
2022-10-01T13:35:57.575Z,100.00
2022-10-01T13:38:31.821Z,100.00
2022-10-01T13:41:03.759Z,100.00
2022-10-01T13:43:33.812Z,100.00
2022-10-01T13:46:08.991Z,100.00
2022-10-01T13:48:38.922Z,100.00
2022-10-01T13:51:10.614Z,100.00
2022-10-01T13:53:49.984Z,100.00
2022-10-01T13:56:31.068Z,100.00
2022-10-01T13:58:59.417Z,100.00
2022-10-01T14:01:30.567Z,100.00
2022-10-01T14:04:05.643Z,100.00
2022-10-01T14:06:42.777Z,100.00
2022-10-01T14:09:16.836Z,100.00
2022-10-01T14:12:07.425Z,100.00
2022-10-01T14:14:55.365Z,100.00
2022-10-01T14:17:27.367Z,100.00
2022-10-01T14:19:55.499Z,100.00
2022-10-01T14:22:54.277Z,100.00
2022-10-01T14:25:30.964Z,100.00
2022-10-01T14:28:12.166Z,100.00
2022-10-01T14:30:49.895Z,100.00
2022-10-01T14:33:46.191Z,100.00
2022-10-01T14:36:17.701Z,100.00
2022-10-01T14:38:45.547Z,100.00
2022-10-01T14:41:19.843Z,100.00
2022-10-01T14:43:49.215Z,100.00
2022-10-01T14:46:18.711Z,100.00
2022-10-01T14:48:58.290Z,100.00
2022-10-01T14:51:28.248Z,100.00
2022-10-01T14:53:58.421Z,100.00
2022-10-01T14:56:27.915Z,100.00
2022-10-01T14:59:02.800Z,100.00
2022-10-01T15:01:30.945Z,100.00
2022-10-01T15:03:59.025Z,100.00
2022-10-01T15:06:29.992Z,100.00
2022-10-01T15:09:14.322Z,100.00
2022-10-01T15:11:44.818Z,100.00
2022-10-01T15:14:18.275Z,100.00
2022-10-01T15:16:46.565Z,100.00
2022-10-01T15:19:18.273Z,100.00
2022-10-01T15:21:50.056Z,100.00
2022-10-01T15:24:24.929Z,100.00
2022-10-01T15:26:55.308Z,100.00
2022-10-01T15:29:25.001Z,100.00
2022-10-01T15:31:54.814Z,100.00
2022-10-01T15:34:25.661Z,100.00
2022-10-01T15:36:54.514Z,100.00
2022-10-01T15:39:30.423Z,100.00
2022-10-01T15:41:59.534Z,100.00
2022-10-01T15:44:47.272Z,100.00
2022-10-01T15:47:32.507Z,100.00
2022-10-01T15:50:06.460Z,100.00
2022-10-01T15:52:52.102Z,100.00
2022-10-01T15:55:23.302Z,100.00
2022-10-01T15:57:55.734Z,100.00
2022-10-01T16:00:27.916Z,100.00
2022-10-01T16:02:57.824Z,100.00
2022-10-01T16:05:29.575Z,100.00
2022-10-01T16:07:59.351Z,100.00
2022-10-01T16:10:33.904Z,100.00
2022-10-01T16:13:31.809Z,100.00
2022-10-01T16:16:20.870Z,100.00
2022-10-01T16:18:54.070Z,100.00
2022-10-01T16:21:22.970Z,100.00
2022-10-01T16:23:53.006Z,100.00
2022-10-01T16:26:35.095Z,100.00
2022-10-01T16:29:06.048Z,100.00
2022-10-01T16:31:37.547Z,100.00
2022-10-01T16:34:12.194Z,100.00
2022-10-01T16:36:40.575Z,100.00
2022-10-01T16:39:08.931Z,100.00
2022-10-01T16:41:37.134Z,100.00
2022-10-01T16:44:06.238Z,100.00
2022-10-01T16:46:36.642Z,100.00
2022-10-01T16:49:12.363Z,100.00
2022-10-01T16:51:40.936Z,100.00
2022-10-01T16:54:24.811Z,100.00
2022-10-01T16:56:55.176Z,100.00
2022-10-01T16:59:24.821Z,100.00
2022-10-01T17:01:57.432Z,100.00
2022-10-01T17:04:29.265Z,100.00
2022-10-01T17:06:59.448Z,100.00
2022-10-01T17:09:27.406Z,100.00
2022-10-01T17:11:55.549Z,100.00
2022-10-01T17:14:23.321Z,100.00
2022-10-01T17:16:53.466Z,100.00
2022-10-01T17:19:22.969Z,100.00
2022-10-01T17:21:50.849Z,100.00
2022-10-01T17:24:18.761Z,100.00
2022-10-01T17:26:46.966Z,100.00
2022-10-01T17:29:14.880Z,100.00
2022-10-01T17:31:44.820Z,100.00
2022-10-01T17:34:13.503Z,100.00
2022-10-01T17:36:42.690Z,100.00
2022-10-01T17:39:10.508Z,100.00
2022-10-01T17:41:38.339Z,100.00
2022-10-01T17:44:06.176Z,100.00
2022-10-01T17:46:34.376Z,100.00
2022-10-01T17:49:02.402Z,100.00
2022-10-01T17:51:30.323Z,100.00
2022-10-01T17:54:01.951Z,100.00
2022-10-01T17:56:32.693Z,100.00
2022-10-01T17:59:00.942Z,100.00
2022-10-01T18:01:28.857Z,100.00
2022-10-01T18:03:57.662Z,100.00
2022-10-01T18:06:26.322Z,100.00
2022-10-01T18:08:55.914Z,100.00
2022-10-01T18:11:26.792Z,100.00
2022-10-01T18:13:54.514Z,100.00
2022-10-01T18:16:23.502Z,100.00
2022-10-01T18:21:43.659Z,100.00
2022-10-01T18:24:11.675Z,100.00
2022-10-01T18:26:40.899Z,100.00
2022-10-01T18:29:08.883Z,100.00
2022-10-01T18:31:38.274Z,100.00
2022-10-01T18:34:16.259Z,100.00
2022-10-01T18:36:55.027Z,100.00
2022-10-01T18:39:29.162Z,100.00
2022-10-01T18:41:59.470Z,100.00
2022-10-01T18:44:27.555Z,100.00
2022-10-01T18:47:20.116Z,100.00
2022-10-01T18:50:04.691Z,100.00
2022-10-01T18:52:48.450Z,100.00
2022-10-01T18:55:41.340Z,100.00
2022-10-01T18:58:27.324Z,100.00
2022-10-01T19:01:05.088Z,100.00
2022-10-01T19:03:53.404Z,100.00
2022-10-01T19:06:36.049Z,100.00
2022-10-01T19:09:20.578Z,100.00
2022-10-01T19:11:55.227Z,100.00
2022-10-01T19:14:42.852Z,100.00
2022-10-01T19:17:23.223Z,100.00
2022-10-01T19:19:58.915Z,100.00
2022-10-01T19:22:35.045Z,100.00
2022-10-01T19:25:16.453Z,100.00
2022-10-01T19:27:59.563Z,100.00
2022-10-01T19:30:35.148Z,100.00
2022-10-01T19:33:06.481Z,100.00
2022-10-01T19:35:39.930Z,100.00
2022-10-01T19:38:14.759Z,100.00
2022-10-01T19:40:49.549Z,100.00
2022-10-01T19:43:22.562Z,100.00
2022-10-01T19:45:58.390Z,100.00
2022-10-01T19:48:32.250Z,100.00
2022-10-01T19:51:08.931Z,100.00
2022-10-01T19:53:38.427Z,100.00
2022-10-01T19:56:06.610Z,100.00
2022-10-01T19:58:34.702Z,100.00
2022-10-01T20:01:05.105Z,100.00
2022-10-01T20:03:38.596Z,100.00
2022-10-01T20:06:13.403Z,100.00
2022-10-01T20:08:46.787Z,100.00
2022-10-01T20:11:20.151Z,100.00
2022-10-01T20:14:36.045Z,100.00
2022-10-01T20:17:14.530Z,100.00
2022-10-01T20:19:51.354Z,100.00
2022-10-01T20:22:27.773Z,100.00
2022-10-01T20:25:04.082Z,100.00
2022-10-01T20:27:48.477Z,100.00
2022-10-01T20:30:20.163Z,100.00
2022-10-01T20:32:57.203Z,100.00
2022-10-01T20:35:32.311Z,100.00
2022-10-01T20:38:08.011Z,100.00
2022-10-01T20:40:41.355Z,100.00
2022-10-01T20:43:16.345Z,100.00
2022-10-01T20:45:47.400Z,100.00
2022-10-01T20:48:21.289Z,100.00
2022-10-01T20:50:54.134Z,100.00
2022-10-01T20:53:31.247Z,100.00
2022-10-01T20:56:04.118Z,100.00
2022-10-01T20:58:36.167Z,100.00
2022-10-01T21:01:09.999Z,100.00
2022-10-01T21:03:44.218Z,100.00
2022-10-01T21:06:16.300Z,100.00
2022-10-01T21:08:50.025Z,100.00
2022-10-01T21:11:27.299Z,100.00
2022-10-01T21:14:04.198Z,100.00
2022-10-01T21:16:52.109Z,100.00
2022-10-01T21:19:49.744Z,100.00
2022-10-01T21:22:32.363Z,100.00
2022-10-01T21:25:10.980Z,100.00
2022-10-01T21:27:55.802Z,100.00
2022-10-01T21:30:24.141Z,100.00
2022-10-01T21:33:09.223Z,100.00
2022-10-01T21:35:49.459Z,100.00
2022-10-01T21:38:28.650Z,100.00
2022-10-01T21:41:13.808Z,100.00
2022-10-01T21:43:58.538Z,100.00
2022-10-01T21:46:33.257Z,100.00
2022-10-01T21:49:10.376Z,100.00
2022-10-01T21:51:53.635Z,100.00
2022-10-01T21:54:49.706Z,100.00
2022-10-01T21:57:36.282Z,100.00
2022-10-01T22:00:17.902Z,100.00
2022-10-01T22:03:03.904Z,100.00
2022-10-01T22:05:38.972Z,100.00
2022-10-01T22:08:39.728Z,100.00
2022-10-01T22:11:15.846Z,100.00
2022-10-01T22:13:50.448Z,100.00
2022-10-01T22:16:19.916Z,100.00
2022-10-01T22:18:50.682Z,100.00
2022-10-01T22:21:28.468Z,100.00
2022-10-01T22:24:02.588Z,100.00
2022-10-01T22:26:35.203Z,100.00
2022-10-01T22:29:04.847Z,100.00
2022-10-01T22:31:36.042Z,100.00
2022-10-01T22:34:09.464Z,100.00
2022-10-01T22:36:43.335Z,100.00
2022-10-01T22:39:18.780Z,100.00
2022-10-01T22:41:51.933Z,100.00
2022-10-01T22:44:22.230Z,100.00
2022-10-01T22:47:07.983Z,100.00
2022-10-01T22:49:48.351Z,100.00
2022-10-01T22:52:22.661Z,100.00
2022-10-01T22:55:05.773Z,100.00
2022-10-01T22:57:53.308Z,100.00
2022-10-01T23:00:21.995Z,100.00
2022-10-01T23:03:04.514Z,100.00
2022-10-01T23:05:42.810Z,100.00
2022-10-01T23:08:22.479Z,100.00
2022-10-01T23:11:02.650Z,100.00
2022-10-01T23:13:44.382Z,100.00
2022-10-01T23:16:21.488Z,100.00
2022-10-01T23:19:00.020Z,100.00
2022-10-01T23:21:38.064Z,100.00
2022-10-01T23:24:18.034Z,100.00
2022-10-01T23:26:55.363Z,100.00
2022-10-01T23:29:40.268Z,100.00
2022-10-01T23:32:21.734Z,100.00
2022-10-01T23:35:00.647Z,100.00
2022-10-01T23:37:45.024Z,100.00
2022-10-01T23:40:17.378Z,100.00
2022-10-01T23:42:54.333Z,100.00
2022-10-01T23:45:28.762Z,100.00
2022-10-01T23:48:04.593Z,100.00
2022-10-01T23:50:36.245Z,100.00
2022-10-01T23:53:15.097Z,100.00
2022-10-01T23:56:05.239Z,100.00
2022-10-01T23:58:41.195Z,100.00
